Time;durP1;ratioP1;P1;durP2;ratioP2;P2;SDS_P1;SDS_P2;PMS_P1;PMS_P2;Temp;Humidity;BMP_temperature;BMP_pressure;BME280_temperature;BME280_humidity;BME280_pressure;Samples;Min_cycle;Max_cycle;Signal;HPM_P1;HPM_P2
2022/05/23 00:01:53;;;;;;;;;;;15.00;94.30;;;;;;5002673;28;19929;-85
2022/05/23 00:04:21;;;;;;;;;;;15.00;94.40;;;;;;4994063;28;19933;-85
2022/05/23 00:06:51;;;;;;;;;;;14.90;94.60;;;;;;4987820;28;19937;-85
2022/05/23 00:09:19;;;;;;;;;;;15.10;94.60;;;;;;4987939;28;20317;-85
2022/05/23 00:11:46;;;;;;;;;;;15.00;94.60;;;;;;4997083;28;20480;-85
2022/05/23 00:14:15;;;;;;;;;;;14.80;95.60;;;;;;5024305;28;20302;-85
2022/05/23 00:16:44;;;;;;;;;;;15.10;95.00;;;;;;4998743;28;19930;-85
2022/05/23 00:19:13;;;;;;;;;;;15.10;94.90;;;;;;4995799;28;19929;-85
2022/05/23 00:21:42;;;;;;;;;;;15.10;94.80;;;;;;5021618;28;19924;-85
2022/05/23 00:24:10;;;;;;;;;;;15.20;94.70;;;;;;5012781;28;19925;-85
2022/05/23 00:26:38;;;;;;;;;;;14.60;94.50;;;;;;5027839;28;19929;-84
2022/05/23 00:29:09;;;;;;;;;;;15.30;94.40;;;;;;4998946;28;19933;-85
2022/05/23 00:35:17;;;;;;;;;;;15.40;94.20;;;;;;5006382;28;20340;-85
2022/05/23 00:37:11;;;;;;;;;;;15.50;94.00;;;;;;4972794;28;19926;-85
2022/05/23 00:39:39;;;;;;;;;;;15.50;93.90;;;;;;5004914;28;19922;-84
2022/05/23 00:45:00;;;;;;;;;;;15.60;93.70;;;;;;5009419;28;19948;-85
2022/05/23 00:47:28;;;;;;;;;;;16.20;93.80;;;;;;4988265;28;19936;-85
2022/05/23 00:49:55;;;;;;;;;;;15.60;93.50;;;;;;5005374;28;20332;-85
2022/05/23 00:52:26;;;;;;;;;;;15.60;93.60;;;;;;5024807;28;19933;-86
2022/05/23 00:54:56;;;;;;;;;;;15.60;93.50;;;;;;4993990;28;19933;-85
2022/05/23 00:57:28;;;;;;;;;;;15.60;93.70;;;;;;5019117;28;19926;-85
2022/05/23 00:59:57;;;;;;;;;;;15.70;93.80;;;;;;5018794;28;19926;-85
2022/05/23 01:02:27;;;;;;;;;;;15.70;93.80;;;;;;5014256;28;19944;-84
2022/05/23 01:04:55;;;;;;;;;;;15.80;93.80;;;;;;5017400;28;19925;-85
2022/05/23 01:07:23;;;;;;;;;;;15.70;94.00;;;;;;5031689;28;19940;-85
2022/05/23 01:09:51;;;;;;;;;;;15.70;94.00;;;;;;5022486;28;19940;-85
2022/05/23 01:12:21;;;;;;;;;;;15.70;94.00;;;;;;5009337;28;19937;-86
2022/05/23 01:14:51;;;;;;;;;;;15.70;94.00;;;;;;5010732;28;19932;-85
2022/05/23 01:17:22;;;;;;;;;;;15.70;94.00;;;;;;4992660;28;20478;-85
2022/05/23 01:19:50;;;;;;;;;;;15.00;93.90;;;;;;4973813;28;19945;-85
2022/05/23 01:22:30;;;;;;;;;;;15.70;94.30;;;;;;5007233;28;19933;-86
2022/05/23 01:25:16;;;;;;;;;;;15.60;94.40;;;;;;4990723;28;20328;-84
2022/05/23 01:27:49;;;;;;;;;;;15.60;94.30;;;;;;4990043;28;19926;-85
2022/05/23 01:30:17;;;;;;;;;;;15.80;94.40;;;;;;5007984;28;19925;-84
2022/05/23 01:33:02;;;;;;;;;;;15.60;94.40;;;;;;4990380;28;19925;-86
2022/05/23 01:35:32;;;;;;;;;;;15.50;94.50;;;;;;4991336;28;19929;-84
2022/05/23 01:38:00;;;;;;;;;;;15.10;94.40;;;;;;4989902;28;19936;-85
2022/05/23 01:40:42;;;;;;;;;;;15.40;94.70;;;;;;4990391;28;20364;-86
2022/05/23 01:43:16;;;;;;;;;;;15.40;94.60;;;;;;4989709;28;20405;-85
2022/05/23 01:45:45;;;;;;;;;;;15.30;94.70;;;;;;4999249;28;19933;-86
2022/05/23 01:48:26;;;;;;;;;;;15.30;94.70;;;;;;4973213;28;20386;-85
2022/05/23 01:50:54;;;;;;;;;;;15.30;94.70;;;;;;4991681;28;19922;-85
2022/05/23 01:53:21;;;;;;;;;;;15.30;94.80;;;;;;4980151;28;19929;-85
2022/05/23 01:56:05;;;;;;;;;;;15.30;94.90;;;;;;4956796;28;19932;-85
2022/05/23 02:01:44;;;;;;;;;;;15.20;94.80;;;;;;5022985;28;19925;-85
2022/05/23 02:04:20;;;;;;;;;;;15.20;94.80;;;;;;4996861;28;19925;-85
2022/05/23 02:06:48;;;;;;;;;;;15.20;95.00;;;;;;4991658;28;19929;-85
2022/05/23 02:09:27;;;;;;;;;;;15.50;95.00;;;;;;5024988;28;19929;-85
2022/05/23 02:12:22;;;;;;;;;;;15.20;95.30;;;;;;4992229;28;19925;-85
2022/05/23 02:14:52;;;;;;;;;;;15.20;95.30;;;;;;5011036;28;19925;-84
2022/05/23 02:17:49;;;;;;;;;;;15.10;95.50;;;;;;4976815;28;19926;-86
2022/05/23 02:20:17;;;;;;;;;;;15.80;95.80;;;;;;5027879;28;20029;-85
2022/05/23 02:22:45;;;;;;;;;;;15.10;95.80;;;;;;5011046;28;19929;-85
2022/05/23 02:25:19;;;;;;;;;;;15.10;95.80;;;;;;5011544;28;20390;-85
2022/05/23 02:27:48;;;;;;;;;;;15.10;95.70;;;;;;5009783;28;19930;-85
2022/05/23 02:30:16;;;;;;;;;;;15.00;95.70;;;;;;5012051;28;19960;-85
2022/05/23 02:32:45;;;;;;;;;;;16.00;96.10;;;;;;5011267;28;20292;-86
2022/05/23 02:35:17;;;;;;;;;;;15.00;95.80;;;;;;5004212;28;19925;-85
2022/05/23 02:37:45;;;;;;;;;;;15.20;95.90;;;;;;5034331;28;19932;-84
2022/05/23 02:40:17;;;;;;;;;;;14.90;96.00;;;;;;5011861;28;19932;-85
2022/05/23 02:42:45;;;;;;;;;;;14.90;96.00;;;;;;5027963;28;19925;-84
2022/05/23 02:45:13;;;;;;;;;;;14.90;95.80;;;;;;4994430;28;20500;-85
2022/05/23 02:47:44;;;;;;;;;;;15.60;96.00;;;;;;5011029;28;19925;-85
2022/05/23 02:50:13;;;;;;;;;;;15.30;96.00;;;;;;4663545;28;10000088;-85
2022/05/23 02:52:44;;;;;;;;;;;14.90;95.90;;;;;;5026828;28;20036;-85
2022/05/23 02:55:41;;;;;;;;;;;14.90;95.90;;;;;;4996298;28;19938;-84
2022/05/23 02:58:10;;;;;;;;;;;14.80;96.20;;;;;;5007755;28;19933;-84
2022/05/23 03:00:39;;;;;;;;;;;14.80;96.40;;;;;;4993665;28;19929;-85
2022/05/23 03:03:09;;;;;;;;;;;14.80;96.20;;;;;;4999310;28;19926;-85
2022/05/23 03:05:59;;;;;;;;;;;14.80;96.30;;;;;;5005916;28;20296;-85
2022/05/23 03:08:28;;;;;;;;;;;14.80;96.40;;;;;;5003159;28;19926;-85
2022/05/23 03:10:58;;;;;;;;;;;14.80;96.70;;;;;;5004506;28;19958;-85
2022/05/23 03:13:27;;;;;;;;;;;14.80;96.60;;;;;;5017739;28;19926;-84
2022/05/23 03:15:55;;;;;;;;;;;14.70;96.40;;;;;;5006596;28;19937;-85
2022/05/23 03:18:24;;;;;;;;;;;14.90;96.40;;;;;;5017912;28;19929;-84
2022/05/23 03:21:05;;;;;;;;;;;14.20;96.00;;;;;;5004946;28;19932;-85
2022/05/23 03:29:11;;;;;;;;;;;15.00;95.70;;;;;;4997002;28;19941;-85
2022/05/23 03:31:39;;;;;;;;;;;14.90;95.80;;;;;;5013855;28;19925;-84
2022/05/23 03:34:09;;;;;;;;;;;15.60;95.70;;;;;;5015196;28;19925;-85
2022/05/23 03:36:37;;;;;;;;;;;14.90;95.60;;;;;;5015371;28;19926;-84
2022/05/23 03:39:05;;;;;;;;;;;14.90;95.60;;;;;;5014569;28;19925;-85
2022/05/23 03:41:33;;;;;;;;;;;14.90;95.30;;;;;;5014202;28;20296;-85
2022/05/23 03:44:07;;;;;;;;;;;14.90;95.60;;;;;;5013670;28;19929;-85
2022/05/23 03:46:36;;;;;;;;;;;14.90;95.30;;;;;;5014656;28;19932;-85
2022/05/23 03:49:06;;;;;;;;;;;14.90;95.10;;;;;;4994074;28;20317;-85
2022/05/23 03:51:36;;;;;;;;;;;14.90;95.10;;;;;;4997669;28;20743;-84
2022/05/23 03:54:04;;;;;;;;;;;15.00;95.10;;;;;;4976983;28;19925;-85
2022/05/23 03:56:33;;;;;;;;;;;14.90;95.10;;;;;;5000952;28;19929;-85
2022/05/23 03:59:01;;;;;;;;;;;14.90;95.10;;;;;;5013143;28;19936;-85
2022/05/23 04:01:32;;;;;;;;;;;15.00;95.10;;;;;;5005256;28;19926;-85
2022/05/23 04:04:15;;;;;;;;;;;15.00;95.10;;;;;;4977302;28;19926;-85
2022/05/23 04:07:03;;;;;;;;;;;15.30;94.90;;;;;;5010230;28;20305;-84
2022/05/23 04:09:42;;;;;;;;;;;15.60;94.80;;;;;;4993151;28;19930;-85
2022/05/23 04:12:10;;;;;;;;;;;15.50;94.80;;;;;;5026369;28;20020;-85
2022/05/23 04:14:42;;;;;;;;;;;15.10;94.60;;;;;;5012477;28;19925;-85
2022/05/23 04:17:10;;;;;;;;;;;13.70;94.40;;;;;;5012397;28;19932;-85
2022/05/23 04:19:40;;;;;;;;;;;15.10;94.90;;;;;;5029395;28;19933;-84
2022/05/23 04:22:27;;;;;;;;;;;15.20;95.20;;;;;;5010736;28;20388;-85
2022/05/23 04:25:04;;;;;;;;;;;13.20;94.30;;;;;;5012999;28;20009;-85
2022/05/23 04:27:32;;;;;;;;;;;15.10;94.80;;;;;;5047491;28;19933;-85
2022/05/23 04:30:00;;;;;;;;;;;14.90;94.60;;;;;;5047278;28;19944;-85
2022/05/23 04:35:25;;;;;;;;;;;15.10;94.70;;;;;;5003274;28;20405;-86
2022/05/23 04:37:54;;;;;;;;;;;15.20;94.60;;;;;;5010475;28;20154;-85
2022/05/23 04:40:28;;;;;;;;;;;15.20;94.70;;;;;;4996355;28;19937;-85
2022/05/23 04:42:58;;;;;;;;;;;15.20;94.70;;;;;;5026045;28;20376;-85
2022/05/23 04:45:26;;;;;;;;;;;15.20;94.90;;;;;;5025693;28;19936;-85
2022/05/23 04:50:54;;;;;;;;;;;15.20;94.50;;;;;;5023691;28;20261;-85
2022/05/23 04:53:24;;;;;;;;;;;15.30;94.70;;;;;;5023254;28;19929;-85
2022/05/23 04:56:05;;;;;;;;;;;14.40;94.50;;;;;;5022552;28;19926;-85
2022/05/23 04:58:32;;;;;;;;;;;15.30;94.60;;;;;;5006211;28;19948;-84
2022/05/23 05:01:03;;;;;;;;;;;15.20;94.90;;;;;;4986269;28;19937;-85
2022/05/23 05:03:31;;;;;;;;;;;15.30;94.60;;;;;;4987797;28;19937;-85
2022/05/23 05:05:59;;;;;;;;;;;15.30;94.60;;;;;;4970852;28;19937;-85
2022/05/23 05:08:28;;;;;;;;;;;15.30;94.90;;;;;;4987163;28;20212;-85
2022/05/23 05:10:59;;;;;;;;;;;15.30;94.80;;;;;;4971707;28;19933;-84
2022/05/23 05:13:33;;;;;;;;;;;15.30;94.70;;;;;;5008587;28;19926;-85
2022/05/23 05:16:07;;;;;;;;;;;15.30;94.90;;;;;;4997708;28;20408;-85
2022/05/23 05:18:38;;;;;;;;;;;15.40;94.80;;;;;;5030746;28;19925;-85
2022/05/23 05:21:29;;;;;;;;;;;15.90;95.10;;;;;;5013250;28;19926;-85
2022/05/23 05:24:18;;;;;;;;;;;15.40;94.70;;;;;;5011277;28;19926;-84
2022/05/23 05:27:06;;;;;;;;;;;15.20;94.90;;;;;;5006975;28;19929;-85
2022/05/23 05:29:33;;;;;;;;;;;15.40;94.80;;;;;;5008042;28;20289;-85
2022/05/23 05:32:11;;;;;;;;;;;15.60;94.90;;;;;;4998979;28;19949;-85
2022/05/23 05:34:45;;;;;;;;;;;15.40;94.80;;;;;;5003613;28;19933;-84
2022/05/23 05:37:20;;;;;;;;;;;15.50;94.90;;;;;;5004276;28;19933;-85
2022/05/23 05:39:48;;;;;;;;;;;15.60;94.70;;;;;;5004127;28;19936;-85
2022/05/23 05:42:19;;;;;;;;;;;15.60;94.70;;;;;;4998360;28;19933;-85
2022/05/23 05:44:52;;;;;;;;;;;15.60;94.90;;;;;;5009130;28;19929;-85
2022/05/23 05:47:22;;;;;;;;;;;15.60;94.70;;;;;;5010562;28;19929;-85
2022/05/23 05:50:05;;;;;;;;;;;15.50;94.80;;;;;;5027869;28;19929;-85
2022/05/23 05:52:39;;;;;;;;;;;15.70;95.00;;;;;;4994959;28;19929;-85
2022/05/23 05:55:08;;;;;;;;;;;15.70;94.90;;;;;;4994607;28;19930;-85
2022/05/23 05:57:41;;;;;;;;;;;15.80;94.90;;;;;;4982421;28;19933;-85
2022/05/23 06:00:09;;;;;;;;;;;15.70;95.10;;;;;;4992813;28;19926;-84
2022/05/23 06:02:47;;;;;;;;;;;15.70;95.10;;;;;;5013088;28;19926;-85
2022/05/23 06:05:20;;;;;;;;;;;17.10;95.90;;;;;;5028785;28;19933;-85
2022/05/23 06:13:50;;;;;;;;;;;15.70;95.30;;;;;;5020037;28;19925;-87
2022/05/23 06:16:35;;;;;;;;;;;15.40;95.60;;;;;;5025874;28;19925;-86
2022/05/23 06:19:07;;;;;;;;;;;15.70;95.70;;;;;;5025446;28;19925;-84
2022/05/23 06:21:44;;;;;;;;;;;15.70;95.90;;;;;;4991528;28;19929;-84
2022/05/23 06:24:12;;;;;;;;;;;15.60;95.90;;;;;;5026289;28;19925;-85
2022/05/23 06:26:44;;;;;;;;;;;15.70;96.20;;;;;;5007929;28;19944;-85
2022/05/23 06:29:35;;;;;;;;;;;14.50;95.80;;;;;;5011071;28;19926;-84
2022/05/23 06:32:23;;;;;;;;;;;15.60;96.00;;;;;;5007987;28;19933;-85
2022/05/23 06:34:52;;;;;;;;;;;15.70;96.00;;;;;;5008631;28;19929;-85
2022/05/23 06:37:20;;;;;;;;;;;14.30;95.70;;;;;;5008465;28;19925;-85
2022/05/23 06:39:49;;;;;;;;;;;15.60;95.90;;;;;;5019082;28;19960;-85
2022/05/23 06:42:40;;;;;;;;;;;15.60;96.10;;;;;;5008627;28;19930;-84
2022/05/23 06:45:27;;;;;;;;;;;14.80;95.80;;;;;;5004066;28;19940;-85
2022/05/23 06:48:13;;;;;;;;;;;15.70;95.90;;;;;;5012459;28;19940;-86
2022/05/23 06:50:52;;;;;;;;;;;15.40;95.90;;;;;;4995308;28;19926;-86
2022/05/23 06:53:24;;;;;;;;;;;15.80;95.90;;;;;;5019518;28;19937;-85
2022/05/23 06:56:14;;;;;;;;;;;15.80;95.90;;;;;;5018245;28;20726;-84
2022/05/23 06:58:46;;;;;;;;;;;15.90;95.90;;;;;;5000357;28;19936;-84
2022/05/23 07:01:26;;;;;;;;;;;15.70;95.80;;;;;;5013012;28;19926;-85
2022/05/23 07:04:12;;;;;;;;;;;16.00;95.90;;;;;;5023064;28;19933;-86
2022/05/23 07:12:28;;;;;;;;;;;16.10;95.90;;;;;;5023313;28;19926;-86
2022/05/23 07:14:59;;;;;;;;;;;16.10;95.70;;;;;;4989735;28;19925;-87
2022/05/23 07:17:29;;;;;;;;;;;16.10;95.70;;;;;;4993761;28;19937;-87
2022/05/23 07:20:11;;;;;;;;;;;16.10;95.80;;;;;;4993556;28;19925;-84
2022/05/23 07:22:42;;;;;;;;;;;17.70;96.20;;;;;;4994486;28;19926;-84
2022/05/23 07:25:10;;;;;;;;;;;16.20;95.70;;;;;;5010781;28;20310;-85
2022/05/23 07:27:37;;;;;;;;;;;15.90;95.60;;;;;;4996540;28;19948;-86
2022/05/23 07:30:05;;;;;;;;;;;16.30;96.00;;;;;;4996007;28;19926;-85
2022/05/23 07:32:39;;;;;;;;;;;16.30;95.70;;;;;;4993302;28;19952;-85
2022/05/23 07:35:10;;;;;;;;;;;16.40;95.70;;;;;;5018102;28;20758;-85
2022/05/23 07:37:37;;;;;;;;;;;16.40;95.70;;;;;;5007508;28;19949;-85
2022/05/23 07:40:06;;;;;;;;;;;15.80;95.40;;;;;;4978327;28;19925;-86
2022/05/23 07:42:43;;;;;;;;;;;16.50;95.50;;;;;;4972418;28;20578;-85
2022/05/23 07:45:11;;;;;;;;;;;16.60;95.50;;;;;;4987659;28;19929;-85
2022/05/23 07:47:41;;;;;;;;;;;16.60;95.50;;;;;;4979374;28;19930;-85
2022/05/23 07:50:24;;;;;;;;;;;16.70;95.60;;;;;;4993552;28;19941;-86
2022/05/23 08:01:27;;;;;;;;;;;17.10;95.10;;;;;;5003376;28;19925;-85
2022/05/23 08:04:01;;;;;;;;;;;17.10;95.20;;;;;;4986799;28;20423;-85
2022/05/23 08:06:37;;;;;;;;;;;17.10;95.20;;;;;;4974079;28;19934;-85
2022/05/23 08:09:07;;;;;;;;;;;17.20;95.10;;;;;;5005464;28;20536;-85
2022/05/23 08:11:36;;;;;;;;;;;17.20;94.90;;;;;;5004678;28;20292;-84
2022/05/23 08:14:11;;;;;;;;;;;17.40;94.90;;;;;;5000600;28;19937;-85
2022/05/23 08:16:53;;;;;;;;;;;17.40;95.00;;;;;;4999297;28;19945;-85
2022/05/23 08:19:33;;;;;;;;;;;17.40;94.80;;;;;;5012642;28;19926;-86
2022/05/23 08:22:09;;;;;;;;;;;17.40;94.80;;;;;;4981013;28;19936;-86
2022/05/23 08:24:44;;;;;;;;;;;17.40;94.70;;;;;;4971391;28;19944;-86
2022/05/23 08:27:11;;;;;;;;;;;17.50;94.70;;;;;;4967054;28;19937;-86
2022/05/23 08:29:46;;;;;;;;;;;17.50;94.80;;;;;;4981973;28;19930;-86
2022/05/23 08:32:20;;;;;;;;;;;17.60;94.80;;;;;;4986446;28;20389;-86
2022/05/23 08:35:01;;;;;;;;;;;17.60;94.60;;;;;;5003547;28;19925;-85
2022/05/23 08:37:29;;;;;;;;;;;17.70;94.50;;;;;;4987231;28;19937;-87
2022/05/23 08:40:35;;;;;;;;;;;17.80;94.60;;;;;;4972040;28;19930;-86
2022/05/23 08:43:05;;;;;;;;;;;17.80;94.50;;;;;;4971057;28;19931;-86
2022/05/23 08:45:37;;;;;;;;;;;18.40;94.60;;;;;;4988023;28;20572;-86
2022/05/23 08:48:05;;;;;;;;;;;18.00;94.30;;;;;;5002713;28;19930;-86
2022/05/23 08:50:41;;;;;;;;;;;17.10;94.00;;;;;;4983504;28;19936;-86
2022/05/23 08:53:11;;;;;;;;;;;18.30;94.10;;;;;;4984831;28;20364;-85
2022/05/23 08:56:01;;;;;;;;;;;18.40;94.00;;;;;;4983558;28;19933;-86
2022/05/23 08:58:46;;;;;;;;;;;18.60;94.00;;;;;;5002180;28;19925;-85
2022/05/23 09:01:19;;;;;;;;;;;18.70;93.70;;;;;;4987534;28;19940;-86
2022/05/23 09:03:50;;;;;;;;;;;18.80;93.60;;;;;;5002191;28;19926;-85
2022/05/23 09:06:22;;;;;;;;;;;19.00;93.60;;;;;;5002244;28;20680;-86
2022/05/23 09:08:51;;;;;;;;;;;19.10;93.40;;;;;;4984144;28;20309;-86
2022/05/23 09:11:27;;;;;;;;;;;19.30;93.30;;;;;;4990368;28;19941;-86
2022/05/23 09:13:55;;;;;;;;;;;19.40;93.10;;;;;;4998926;28;20312;-84
2022/05/23 09:16:26;;;;;;;;;;;19.50;93.00;;;;;;5006523;28;19925;-87
2022/05/23 09:18:56;;;;;;;;;;;19.60;92.90;;;;;;4996547;28;20000;-84
2022/05/23 09:22:12;;;;;;;;;;;19.70;92.60;;;;;;5006002;28;19930;-84
2022/05/23 09:24:17;;;;;;;;;;;19.80;92.70;;;;;;5005086;28;20385;-85
2022/05/23 09:26:45;;;;;;;;;;;19.90;92.40;;;;;;5006478;28;19941;-85
2022/05/23 09:29:13;;;;;;;;;;;20.00;92.50;;;;;;5023516;28;19930;-85
2022/05/23 09:31:50;;;;;;;;;;;20.10;92.60;;;;;;5005890;28;19925;-85
2022/05/23 09:34:28;;;;;;;;;;;20.20;92.60;;;;;;5009025;28;19925;-86
2022/05/23 09:36:56;;;;;;;;;;;20.30;92.20;;;;;;5007121;28;19926;-85
2022/05/23 09:39:24;;;;;;;;;;;20.40;92.20;;;;;;5016549;28;20266;-86
2022/05/23 09:47:46;;;;;;;;;;;20.50;91.90;;;;;;5006481;28;20392;-84
2022/05/23 09:50:26;;;;;;;;;;;20.60;91.90;;;;;;5019279;28;19929;-85
2022/05/23 09:53:05;;;;;;;;;;;20.60;91.40;;;;;;4972064;28;19949;-84
2022/05/23 09:55:34;;;;;;;;;;;20.70;91.90;;;;;;5002792;28;19956;-84
2022/05/23 09:58:04;;;;;;;;;;;20.70;91.40;;;;;;5003332;28;19929;-84
2022/05/23 10:00:35;;;;;;;;;;;20.80;91.50;;;;;;5005209;28;19926;-86
2022/05/23 10:03:06;;;;;;;;;;;20.90;91.50;;;;;;5002703;28;19937;-85
2022/05/23 10:05:36;;;;;;;;;;;20.90;91.50;;;;;;5007479;28;19935;-85
2022/05/23 10:08:14;;;;;;;;;;;20.90;90.90;;;;;;5019619;28;19942;-85
2022/05/23 10:10:55;;;;;;;;;;;20.90;91.30;;;;;;5014111;28;20308;-85
2022/05/23 10:13:38;;;;;;;;;;;20.80;91.20;;;;;;5023304;28;20401;-85
2022/05/23 10:16:08;;;;;;;;;;;20.80;91.20;;;;;;5013850;28;19934;-85
2022/05/23 10:18:43;;;;;;;;;;;20.70;91.10;;;;;;5009429;28;20296;-85
2022/05/23 10:21:20;;;;;;;;;;;20.50;91.00;;;;;;5006447;28;19940;-86
2022/05/23 10:24:07;;;;;;;;;;;20.50;90.80;;;;;;5009804;28;20385;-85
2022/05/23 10:26:48;;;;;;;;;;;20.40;91.00;;;;;;4991383;28;19937;-85
2022/05/23 10:29:20;;;;;;;;;;;20.50;91.10;;;;;;5011844;28;19925;-85
2022/05/23 10:31:52;;;;;;;;;;;20.50;91.00;;;;;;5016239;28;19936;-84
2022/05/23 10:34:30;;;;;;;;;;;20.50;90.90;;;;;;5033065;28;19937;-85
2022/05/23 10:37:01;;;;;;;;;;;20.40;91.10;;;;;;5015960;28;19930;-85
2022/05/23 10:42:27;;;;;;;;;;;20.40;90.80;;;;;;5036218;28;20102;-85
2022/05/23 10:44:59;;;;;;;;;;;20.30;90.60;;;;;;5023196;28;19934;-85
2022/05/23 10:47:48;;;;;;;;;;;20.20;90.70;;;;;;5025140;28;19926;-85
2022/05/23 10:50:23;;;;;;;;;;;20.10;90.90;;;;;;5003540;28;19926;-87
2022/05/23 10:53:09;;;;;;;;;;;19.90;91.30;;;;;;5019280;28;19936;-86
2022/05/23 10:55:47;;;;;;;;;;;19.90;91.30;;;;;;5016842;28;19936;-85
2022/05/23 10:58:40;;;;;;;;;;;19.80;91.50;;;;;;5030449;28;19936;-87
2022/05/23 11:01:07;;;;;;;;;;;19.90;91.50;;;;;;5013634;28;19937;-87
2022/05/23 11:04:13;;;;;;;;;;;19.60;91.80;;;;;;5011098;28;19933;-88
2022/05/23 11:06:55;;;;;;;;;;;19.50;92.20;;;;;;4985273;28;19933;-87
2022/05/23 11:09:42;;;;;;;;;;;19.50;92.40;;;;;;4988301;28;19929;-87
2022/05/23 11:12:28;;;;;;;;;;;19.40;92.00;;;;;;5004441;28;20289;-87
2022/05/23 11:15:01;;;;;;;;;;;19.30;92.10;;;;;;5025855;28;19929;-86
2022/05/23 11:17:34;;;;;;;;;;;19.30;92.10;;;;;;5016545;28;19976;-86
2022/05/23 11:20:08;;;;;;;;;;;19.20;92.20;;;;;;5005212;28;19929;-87
2022/05/23 11:22:40;;;;;;;;;;;19.20;92.60;;;;;;5004898;28;19933;-86
2022/05/23 11:25:26;;;;;;;;;;;19.20;93.00;;;;;;5006784;28;19925;-86
2022/05/23 11:33:47;;;;;;;;;;;19.10;93.80;;;;;;5012399;28;20084;-87
2022/05/23 11:36:34;;;;;;;;;;;19.10;94.00;;;;;;5014658;28;19936;-86
2022/05/23 11:39:01;;;;;;;;;;;19.10;94.70;;;;;;5025100;28;20089;-87
2022/05/23 11:41:34;;;;;;;;;;;19.10;95.00;;;;;;5026092;28;19926;-86
2022/05/23 11:44:13;;;;;;;;;;;19.00;94.90;;;;;;5010593;28;19929;-86
2022/05/23 11:47:18;;;;;;;;;;;19.00;94.90;;;;;;5006873;28;19929;-86
2022/05/23 11:49:47;;;;;;;;;;;18.90;94.70;;;;;;4987897;28;20289;-86
2022/05/23 11:52:31;;;;;;;;;;;18.90;95.90;;;;;;5006058;28;19934;-87
2022/05/23 11:54:58;;;;;;;;;;;18.90;96.00;;;;;;5021569;28;20392;-86
2022/05/23 11:57:35;;;;;;;;;;;18.80;96.00;;;;;;4986950;28;19925;-86
2022/05/23 12:00:03;;;;;;;;;;;18.80;96.80;;;;;;5009722;28;19947;-86
2022/05/23 12:02:39;;;;;;;;;;;18.70;96.60;;;;;;5008074;28;19936;-86
2022/05/23 12:05:09;;;;;;;;;;;18.70;96.50;;;;;;4991417;28;19926;-86
2022/05/23 12:07:37;;;;;;;;;;;18.80;96.80;;;;;;5019474;28;20395;-87
2022/05/23 12:10:23;;;;;;;;;;;18.90;96.90;;;;;;5005283;28;20301;-86
2022/05/23 12:12:51;;;;;;;;;;;18.90;96.70;;;;;;5011462;28;19933;-86
2022/05/23 12:15:37;;;;;;;;;;;18.90;96.90;;;;;;5006078;28;19929;-86
2022/05/23 12:18:04;;;;;;;;;;;19.00;96.60;;;;;;5004994;28;19930;-86
2022/05/23 12:20:42;;;;;;;;;;;19.00;96.60;;;;;;5006170;28;19930;-86
2022/05/23 12:23:11;;;;;;;;;;;19.00;96.50;;;;;;5007607;28;19929;-86
2022/05/23 12:25:39;;;;;;;;;;;18.90;95.90;;;;;;5002839;28;20408;-86
2022/05/23 12:28:14;;;;;;;;;;;18.90;95.90;;;;;;5004637;28;19951;-86
2022/05/23 12:31:04;;;;;;;;;;;18.70;95.80;;;;;;5004150;28;19925;-85
2022/05/23 12:33:32;;;;;;;;;;;18.50;96.60;;;;;;5004134;28;20460;-85
2022/05/23 12:36:08;;;;;;;;;;;18.10;97.10;;;;;;5023420;28;19993;-86
2022/05/23 12:38:47;;;;;;;;;;;17.80;97.90;;;;;;5000564;28;19929;-87
2022/05/23 12:41:18;;;;;;;;;;;17.60;98.20;;;;;;5022655;28;20301;-86
2022/05/23 12:44:00;;;;;;;;;;;17.50;98.60;;;;;;5019521;28;19930;-86
2022/05/23 12:46:42;;;;;;;;;;;17.50;99.30;;;;;;5003059;28;19984;-85
2022/05/23 12:49:13;;;;;;;;;;;17.50;99.50;;;;;;5005019;28;19936;-85
2022/05/23 12:51:46;;;;;;;;;;;17.50;99.10;;;;;;5005944;28;19925;-88
2022/05/23 12:54:16;;;;;;;;;;;17.50;99.60;;;;;;5021793;28;20300;-87
2022/05/23 12:57:02;;;;;;;;;;;17.50;99.00;;;;;;5004635;28;20393;-86
2022/05/23 12:59:40;;;;;;;;;;;17.40;98.90;;;;;;4983726;28;19929;-86
2022/05/23 13:02:14;;;;;;;;;;;17.30;98.70;;;;;;5019877;28;19932;-86
2022/05/23 13:04:51;;;;;;;;;;;17.20;98.90;;;;;;5004550;28;19932;-86
2022/05/23 13:07:23;;;;;;;;;;;17.00;99.00;;;;;;5005131;28;19930;-86
2022/05/23 13:09:56;;;;;;;;;;;16.90;99.10;;;;;;5004517;28;20553;-87
2022/05/23 13:12:44;;;;;;;;;;;15.50;98.70;;;;;;5003499;28;19936;-86
2022/05/23 13:15:22;;;;;;;;;;;16.60;99.10;;;;;;5004515;28;19930;-86
2022/05/23 13:17:50;;;;;;;;;;;16.50;99.40;;;;;;5004266;28;19932;-86
2022/05/23 13:23:33;;;;;;;;;;;16.30;99.70;;;;;;4984538;28;20445;-87
2022/05/23 13:26:08;;;;;;;;;;;16.10;99.90;;;;;;5004546;28;19941;-85
2022/05/23 13:28:55;;;;;;;;;;;16.20;99.90;;;;;;5007169;28;20389;-87
2022/05/23 13:31:25;;;;;;;;;;;15.90;99.90;;;;;;5009100;28;19932;-86
2022/05/23 13:33:54;;;;;;;;;;;15.70;99.90;;;;;;5023105;28;20444;-90
2022/05/23 13:36:23;;;;;;;;;;;15.60;99.90;;;;;;4988521;28;20435;-91
2022/05/23 13:39:02;;;;;;;;;;;15.50;99.90;;;;;;5019940;28;20385;-89
2022/05/23 13:41:31;;;;;;;;;;;15.50;99.90;;;;;;5001887;28;20109;-89
2022/05/23 13:43:59;;;;;;;;;;;15.40;99.90;;;;;;5008787;28;19930;-89
2022/05/23 13:46:45;;;;;;;;;;;15.40;99.90;;;;;;4985858;28;19930;-89
2022/05/23 13:49:16;;;;;;;;;;;15.40;99.90;;;;;;5005168;28;19925;-88
2022/05/23 13:51:50;;;;;;;;;;;15.40;99.90;;;;;;5015819;28;19930;-88
2022/05/23 13:54:40;;;;;;;;;;;15.40;99.90;;;;;;4999247;28;19926;-86
2022/05/23 13:57:13;;;;;;;;;;;15.50;99.90;;;;;;5020880;28;19932;-87
2022/05/23 14:00:01;;;;;;;;;;;15.50;99.90;;;;;;4984722;28;19926;-89
2022/05/23 14:02:30;;;;;;;;;;;15.90;99.90;;;;;;5006242;28;19925;-90
2022/05/23 14:04:58;;;;;;;;;;;15.70;99.90;;;;;;5009675;28;19933;-89
2022/05/23 14:07:31;;;;;;;;;;;15.80;99.90;;;;;;5010072;28;19930;-90
2022/05/23 14:10:07;;;;;;;;;;;15.90;99.90;;;;;;4990523;28;19930;-88
2022/05/23 14:12:36;;;;;;;;;;;16.00;99.90;;;;;;4985717;28;19945;-87
2022/05/23 14:15:05;;;;;;;;;;;16.00;99.90;;;;;;5011411;28;19926;-88
2022/05/23 14:17:37;;;;;;;;;;;16.10;99.90;;;;;;5007779;28;19926;-88
2022/05/23 14:20:22;;;;;;;;;;;16.20;99.90;;;;;;5018618;28;19929;-87
2022/05/23 14:23:05;;;;;;;;;;;16.30;99.90;;;;;;5006864;28;19936;-87
2022/05/23 14:25:35;;;;;;;;;;;16.50;99.90;;;;;;5006307;28;20388;-86
2022/05/23 14:28:14;;;;;;;;;;;16.60;99.90;;;;;;5022213;28;20499;-86
2022/05/23 14:30:46;;;;;;;;;;;16.60;99.90;;;;;;5006279;28;19932;-88
2022/05/23 14:33:20;;;;;;;;;;;16.80;99.90;;;;;;4991416;28;19960;-86
2022/05/23 14:35:57;;;;;;;;;;;16.90;99.90;;;;;;5009277;28;19929;-87
2022/05/23 14:38:36;;;;;;;;;;;17.00;99.90;;;;;;5003963;28;19930;-89
2022/05/23 14:41:16;;;;;;;;;;;16.90;99.90;;;;;;5006837;28;19937;-90
2022/05/23 14:44:22;;;;;;;;;;;17.40;99.90;;;;;;5007375;28;19929;-88
2022/05/23 14:47:01;;;;;;;;;;;17.50;99.90;;;;;;5001981;28;20489;-86
2022/05/23 14:49:32;;;;;;;;;;;17.80;99.90;;;;;;5021616;28;19932;-88
2022/05/23 14:52:13;;;;;;;;;;;18.10;99.90;;;;;;5004852;28;21295;-88
2022/05/23 14:55:22;;;;;;;;;;;18.60;99.50;;;;;;5003470;28;19934;-86
2022/05/23 15:01:04;;;;;;;;;;;19.70;98.70;;;;;;5001569;28;19936;-85
2022/05/23 15:03:42;;;;;;;;;;;19.90;97.90;;;;;;5002649;28;19937;-87
2022/05/23 15:06:09;;;;;;;;;;;20.10;97.70;;;;;;5008207;28;19933;-85
2022/05/23 15:08:37;;;;;;;;;;;20.20;97.70;;;;;;5005069;28;19940;-87
2022/05/23 15:11:05;;;;;;;;;;;20.20;97.60;;;;;;5008840;28;19941;-85
2022/05/23 15:13:35;;;;;;;;;;;20.10;97.60;;;;;;4989449;28;19941;-85
2022/05/23 15:16:03;;;;;;;;;;;20.10;97.80;;;;;;5012472;28;19929;-85
2022/05/23 15:18:33;;;;;;;;;;;20.00;97.70;;;;;;5020494;28;19957;-89
2022/05/23 15:21:01;;;;;;;;;;;19.90;97.90;;;;;;5004355;28;19952;-88
2022/05/23 15:23:29;;;;;;;;;;;19.90;98.00;;;;;;5023025;28;19937;-88
2022/05/23 15:26:01;;;;;;;;;;;20.00;97.60;;;;;;5005165;28;19937;-87
2022/05/23 15:28:28;;;;;;;;;;;20.00;97.20;;;;;;5005890;28;20004;-86
2022/05/23 15:30:56;;;;;;;;;;;20.00;96.90;;;;;;5020236;28;19926;-89
2022/05/23 15:33:24;;;;;;;;;;;20.00;96.80;;;;;;5010839;28;20285;-90
2022/05/23 15:35:51;;;;;;;;;;;19.90;96.70;;;;;;5021738;28;20204;-89
2022/05/23 15:38:19;;;;;;;;;;;19.80;97.30;;;;;;5004917;28;19949;-90
2022/05/23 15:40:47;;;;;;;;;;;19.80;97.50;;;;;;5005956;28;19933;-92
2022/05/23 15:43:17;;;;;;;;;;;19.90;97.40;;;;;;5004677;28;19936;-89
2022/05/23 15:45:46;;;;;;;;;;;19.90;97.40;;;;;;5005876;28;19933;-90
2022/05/23 15:48:20;;;;;;;;;;;20.00;97.40;;;;;;5022817;28;20896;-87
2022/05/23 15:50:47;;;;;;;;;;;20.00;97.40;;;;;;5026919;28;19929;-87
2022/05/23 15:53:16;;;;;;;;;;;20.00;97.50;;;;;;5024224;28;20603;-86
2022/05/23 15:55:50;;;;;;;;;;;20.10;97.30;;;;;;5005257;28;20390;-86
2022/05/23 15:58:18;;;;;;;;;;;20.20;96.60;;;;;;5004367;28;20056;-86